• Join FlightAware (Why Join?)
  • Login
  • US Flag 
11:42PM EDT


 

Airport Tracker/Info


-or-


 

Live Flight TrackerFlight Track Log ✈ EGF3994 ✈ 28-Apr-2013 ✈ KORD - KDAY

Flight Track Log - Related Links

Times and Time Zones

All times are in EDT time to prevent confusion due to time zone crossing. See the EGF3994 flight status page for this flight to view local times or setup timezone preferences in your user account.

Time Position Orientation Groundspeed Altitude Reporting Facility
EDT Latitude Longitude Course Direction KTS MPH feet Rate Location/Type
06:47PM 41.9167 -87.8833 90° East 214 246 2,700  Level Chicago TRACON
06:48PM 41.8833 -87.8000 118° Southeast 272 313 4,100 900 Climbing Chicago TRACON
06:50PM 41.8850 -87.6478 89° East 267 307 5,000 960 Climbing Chicago Center
06:51PM 41.9395 -87.2193 95° East  Level FlightAware Approximate
06:51PM 41.8936 -87.5475 83° East 271 312 6,700  Level Chicago Center
06:52PM 41.9333 -87.0832 90° East  Level FlightAware Approximate
06:52PM 41.9022 -87.4458 83° East 274 315 8,500  Level Chicago Center
06:53PM 41.9333 -86.9595 90° East  Level FlightAware Approximate
06:53PM 41.9197 -87.3172 80° East 291 335 11,300  Level Chicago Center
06:54PM 41.9317 -87.2033 82° East 308 354 12,500 840 Climbing Chicago Center
06:55PM 41.9439 -87.0700 83° East 355 409 13,100 600 Climbing Chicago Center
06:56PM 41.9475 -86.9267 88° East 383 441 13,800 960 Climbing Chicago Center
06:57PM 41.9486 -86.7806 89° East 391 450 15,100 1,500 Climbing Chicago Center
06:58PM 41.9511 -86.6206 89° East 384 442 17,000 1,380 Climbing Chicago Center
06:59PM 41.9333 -86.4786 100° East 386 444 18,000 960 Climbing Chicago Center
07:00PM 41.9050 -86.3339 105° East 400 460 19,100 1,020 Climbing Chicago Center
07:01PM 41.8769 -86.1869 104° East 406 467 20,200 1,080 Climbing Chicago Center
07:02PM 41.8428 -86.0072 104° East 415 478 21,400 1,020 Climbing Chicago Center
07:03PM 41.8136 -85.8567 105° East 418 481 22,400 720 Climbing Chicago Center
07:04PM 41.7847 -85.7050 104° East 420 483 23,000 240 Climbing Chicago Center
07:05PM 41.7464 -85.5489 108° East 442 509 23,000  Level Chicago Center
07:06PM 41.6258 -85.4608 151° Southeast 448 516 23,000 -540 Level Chicago Center
07:07PM 41.5072 -85.4103 162° South 446 513 22,000 -1,020 Descending Chicago Center
07:09PM 41.3903 -85.3600 162° South 446 513 21,000 -540 Descending Chicago Center
07:10PM 41.2733 -85.3103 162° South 443 510 20,900 -600 Descending Chicago Center
07:11PM 41.1564 -85.2603 162° South 442 509 19,800 -1,260 Descending Chicago Center
07:12PM 41.0442 -85.2136 163° South 429 494 18,400 -1,680 Descending Chicago Center
07:13PM 40.9350 -85.1136 145° Southeast 413 475 16,400 -1,680 Descending Chicago Center
07:14PM 40.8650 -84.9972 128° Southeast 409 471 15,000 -720 Descending Chicago Center
07:15PM 40.7978 -84.8828 128° Southeast 402 463 15,000  Level Chicago Center
07:16PM 40.7294 -84.7694 128° Southeast 397 457 15,000 -120 Level Chicago Center
07:17PM 40.6597 -84.6547 129° Southeast 400 460 14,800 -720 Descending Chicago Center
07:17PM 40.6211 -84.5894 128° Southeast 401 461 14,000 -1,860 Descending Indianapolis Center
07:18PM 40.5967 -84.5467 127° Southeast 399 459 13,300 -1,680 Descending Indianapolis Center
07:19PM 40.5358 -84.4350 126° Southeast 376 433 11,600 -1,620 Descending Indianapolis Center
07:20PM 40.4483 -84.3886 158° South 357 411 10,000 -1,380 Descending Indianapolis Center
07:20PM 40.4178 -84.3828 172° South 352 405 9,900 -120 Descending Indianapolis Center
07:21PM 40.3553 -84.3531 160° South 347 399 9,900 -660 Level Indianapolis Center
07:22PM 40.2808 -84.3183 160° South 287 330 8,800 -1,500 Descending Indianapolis Center
07:23PM 40.2081 -84.2933 165° South 271 312 6,900 -2,040 Descending Indianapolis Center
07:24PM 40.1350 -84.2358 149° Southeast 263 303 4,700 -1,920 Descending Indianapolis Center
07:25PM 40.0675 -84.2183 169° South 256 295 3,000 -1,680 Descending Indianapolis Center